createdAt,value
2017-10-21T00:01:17.541Z,5.40
2017-10-21T00:03:45.455Z,5.25
2017-10-21T00:06:14.182Z,5.67
2017-10-21T00:08:41.997Z,5.40
2017-10-21T00:11:09.952Z,5.30
2017-10-21T00:13:39.395Z,6.30
2017-10-21T00:16:07.228Z,6.37
2017-10-21T00:18:36.170Z,7.37
2017-10-21T00:21:04.023Z,6.63
2017-10-21T00:23:32.193Z,6.93
2017-10-21T00:26:00.807Z,6.33
2017-10-21T00:28:28.942Z,6.00
2017-10-21T00:30:57.532Z,6.10
2017-10-21T00:33:26.245Z,5.90
2017-10-21T00:35:54.085Z,5.87
2017-10-21T00:38:22.893Z,7.13
2017-10-21T00:40:50.785Z,5.03
2017-10-21T00:43:18.644Z,5.53
2017-10-21T00:45:46.468Z,5.03
2017-10-21T00:48:15.154Z,5.20
2017-10-21T00:50:43.767Z,5.60
2017-10-21T00:53:11.609Z,6.00
2017-10-21T00:55:40.340Z,5.20
2017-10-21T00:58:08.263Z,5.80
2017-10-21T01:00:36.990Z,5.40
2017-10-21T01:03:04.836Z,6.40
2017-10-21T01:05:32.700Z,5.80
2017-10-21T01:08:00.634Z,5.87
2017-10-21T01:10:29.249Z,6.60
2017-10-21T01:12:57.171Z,6.13
2017-10-21T01:15:25.098Z,5.53
2017-10-21T01:17:53.002Z,5.40
2017-10-21T01:20:20.932Z,5.00
2017-10-21T01:22:48.856Z,5.30
2017-10-21T01:25:17.594Z,5.57
2017-10-21T01:27:45.512Z,4.80
2017-10-21T01:30:14.224Z,5.00
2017-10-21T01:32:42.190Z,5.30
2017-10-21T01:35:10.162Z,4.97
2017-10-21T01:37:38.290Z,6.30
2017-10-21T01:40:06.221Z,5.87
2017-10-21T01:42:34.235Z,5.10
2017-10-21T01:45:02.891Z,5.73
2017-10-21T01:47:31.577Z,4.47
2017-10-21T01:49:59.907Z,5.00
2017-10-21T01:52:28.545Z,5.60
2017-10-21T01:54:56.498Z,5.40
2017-10-21T01:57:24.445Z,4.80
2017-10-21T01:59:52.562Z,4.63
2017-10-21T02:02:20.489Z,4.70
2017-10-21T02:04:49.170Z,4.10
2017-10-21T02:07:17.072Z,4.50
2017-10-21T02:09:44.986Z,3.80
2017-10-21T02:12:14.368Z,5.20
2017-10-21T02:14:42.327Z,5.63
2017-10-21T02:17:10.305Z,4.20
2017-10-21T02:19:38.600Z,5.73
2017-10-21T02:22:07.349Z,5.33
2017-10-21T02:24:35.507Z,5.77
2017-10-21T02:27:03.488Z,6.77
2017-10-21T02:29:31.403Z,6.20
2017-10-21T02:32:00.143Z,6.13
2017-10-21T02:34:28.016Z,6.00
2017-10-21T02:36:55.926Z,6.60
2017-10-21T02:39:24.593Z,5.97
2017-10-21T02:41:53.289Z,5.70
2017-10-21T02:44:22.005Z,6.23
2017-10-21T02:46:50.018Z,6.00
2017-10-21T02:49:17.913Z,5.95
2017-10-21T02:51:45.809Z,6.30
2017-10-21T02:54:13.668Z,6.13
2017-10-21T02:56:41.520Z,6.03
2017-10-21T02:59:10.172Z,4.43
2017-10-21T03:01:38.038Z,4.10
2017-10-21T03:04:05.999Z,4.47
2017-10-21T03:06:33.889Z,4.03
2017-10-21T03:09:02.466Z,4.90
2017-10-21T03:11:30.398Z,4.57
2017-10-21T03:13:58.323Z,4.50
2017-10-21T03:16:26.192Z,5.70
2017-10-21T03:18:54.101Z,5.10
2017-10-21T03:21:22.693Z,5.03
2017-10-21T03:23:51.336Z,5.73
2017-10-21T03:26:19.206Z,4.80
2017-10-21T03:28:47.192Z,5.87
2017-10-21T03:31:15.016Z,5.43
2017-10-21T03:33:43.751Z,5.43
2017-10-21T03:36:11.683Z,4.90
2017-10-21T03:38:39.749Z,5.90
2017-10-21T03:41:07.680Z,6.37
2017-10-21T03:43:35.653Z,6.10
2017-10-21T03:46:03.493Z,6.80
2017-10-21T03:48:31.295Z,5.93
2017-10-21T03:50:59.099Z,5.30
2017-10-21T03:53:26.983Z,4.50
2017-10-21T03:55:54.794Z,3.97
2017-10-21T03:58:22.633Z,4.20
2017-10-21T04:00:50.435Z,3.60
2017-10-21T04:03:19.703Z,3.60
2017-10-21T04:05:47.576Z,3.17
2017-10-21T04:08:15.471Z,3.30
2017-10-21T04:10:44.211Z,3.23
2017-10-21T04:13:12.120Z,4.20
2017-10-21T04:15:40.795Z,5.40
2017-10-21T04:18:08.683Z,4.80
2017-10-21T04:20:37.440Z,5.37
2017-10-21T04:23:05.272Z,5.40
2017-10-21T04:25:33.215Z,5.20
2017-10-21T04:28:01.065Z,4.70
2017-10-21T04:30:29.011Z,4.87
2017-10-21T04:32:57.816Z,3.93
2017-10-21T04:35:26.430Z,4.07
2017-10-21T04:37:54.547Z,3.10
2017-10-21T04:40:22.459Z,2.43
2017-10-21T04:42:50.372Z,2.50
2017-10-21T04:45:18.310Z,3.30
2017-10-21T04:47:46.173Z,3.67
2017-10-21T04:50:13.999Z,3.93
2017-10-21T04:52:42.667Z,3.23
2017-10-21T04:55:10.483Z,4.27
2017-10-21T04:57:38.611Z,5.27
2017-10-21T05:00:07.221Z,5.43
2017-10-21T05:02:35.886Z,5.43
2017-10-21T05:05:03.822Z,6.57
2017-10-21T05:07:31.652Z,6.87
2017-10-21T05:09:59.582Z,7.10
2017-10-21T05:12:27.672Z,8.47
2017-10-21T05:14:56.386Z,6.57
2017-10-21T05:17:24.347Z,8.20
2017-10-21T05:19:52.270Z,7.20
2017-10-21T05:22:20.221Z,7.13
2017-10-21T05:24:48.035Z,7.83
2017-10-21T05:27:16.700Z,7.00
2017-10-21T05:29:45.564Z,6.80
2017-10-21T05:32:13.395Z,6.67
2017-10-21T05:34:42.133Z,5.40
2017-10-21T05:37:09.950Z,5.30
2017-10-21T05:39:37.890Z,3.27
2017-10-21T05:42:06.503Z,2.40
2017-10-21T05:44:34.316Z,2.30
2017-10-21T05:47:02.120Z,2.23
2017-10-21T05:49:29.994Z,3.07
2017-10-21T05:51:57.917Z,1.90
2017-10-21T05:54:26.524Z,3.03
2017-10-21T05:56:55.123Z,2.60
2017-10-21T05:59:23.348Z,2.83
2017-10-21T06:01:51.340Z,2.50
2017-10-21T06:04:20.033Z,2.00
2017-10-21T06:06:49.038Z,2.33
2017-10-21T06:09:16.873Z,2.43
2017-10-21T06:11:44.822Z,2.33
2017-10-21T06:14:12.896Z,2.13
2017-10-21T06:16:40.770Z,1.97
2017-10-21T06:19:08.890Z,2.17
2017-10-21T06:21:36.912Z,2.63
2017-10-21T06:24:04.835Z,1.77
2017-10-21T06:26:32.688Z,1.83
2017-10-21T06:29:00.643Z,2.03
2017-10-21T06:31:29.443Z,1.90
2017-10-21T06:33:57.700Z,1.90
2017-10-21T06:36:26.604Z,1.63
2017-10-21T06:38:54.740Z,1.63
2017-10-21T06:41:22.651Z,1.83
2017-10-21T06:43:50.543Z,2.70
2017-10-21T06:46:18.362Z,3.30
2017-10-21T06:48:46.940Z,2.40
2017-10-21T06:51:14.796Z,2.40
2017-10-21T06:53:42.605Z,2.53
2017-10-21T06:56:10.440Z,2.10
2017-10-21T06:58:39.059Z,2.40
2017-10-21T07:01:09.540Z,2.40
2017-10-21T07:03:38.383Z,2.73
2017-10-21T07:06:06.387Z,2.43
2017-10-21T07:08:35.225Z,2.50
2017-10-21T07:11:03.712Z,1.80
2017-10-21T07:13:31.704Z,1.50
2017-10-21T07:16:00.555Z,1.73
2017-10-21T07:18:29.170Z,2.07
2017-10-21T07:20:56.999Z,2.10
2017-10-21T07:23:25.599Z,2.23
2017-10-21T07:25:53.444Z,2.60
2017-10-21T07:28:22.023Z,2.23
2017-10-21T07:30:51.051Z,3.00
2017-10-21T07:33:18.897Z,2.50
2017-10-21T07:35:47.733Z,4.00
2017-10-21T07:38:15.588Z,3.03
2017-10-21T07:40:43.441Z,3.60
2017-10-21T07:43:11.294Z,4.47
2017-10-21T07:45:39.158Z,5.30
2017-10-21T07:48:06.993Z,3.40
2017-10-21T07:50:35.903Z,4.13
2017-10-21T07:53:04.517Z,4.20
2017-10-21T07:55:32.414Z,5.03
2017-10-21T07:58:00.300Z,4.17
2017-10-21T08:00:28.170Z,3.30
2017-10-21T08:02:56.840Z,4.40
2017-10-21T08:05:24.693Z,4.57
2017-10-21T08:07:52.540Z,3.17
2017-10-21T08:10:20.368Z,3.30
2017-10-21T08:12:49.051Z,4.10
2017-10-21T08:15:17.793Z,3.87
2017-10-21T08:17:45.636Z,5.27
2017-10-21T08:20:13.571Z,3.73
2017-10-21T08:22:42.302Z,4.60
2017-10-21T08:25:10.155Z,3.40
2017-10-21T08:27:37.994Z,3.57
2017-10-21T08:30:06.161Z,4.00
2017-10-21T08:32:34.750Z,4.83
2017-10-21T08:35:03.366Z,6.07
2017-10-21T08:37:31.263Z,6.87
2017-10-21T08:39:59.186Z,6.17
2017-10-21T08:42:27.173Z,5.40
2017-10-21T08:44:55.113Z,5.20
2017-10-21T08:47:23.060Z,7.50
2017-10-21T08:49:51.716Z,5.17
2017-10-21T08:52:19.840Z,6.63
2017-10-21T08:54:47.668Z,5.17
2017-10-21T08:57:15.545Z,4.63
2017-10-21T08:59:44.173Z,13.13
2017-10-21T09:02:12.408Z,19.33
2017-10-21T09:04:40.224Z,11.70
2017-10-21T09:07:08.106Z,8.03
2017-10-21T09:09:35.964Z,7.47
2017-10-21T09:12:03.801Z,7.90
2017-10-21T09:14:32.277Z,6.20
2017-10-21T09:17:00.083Z,4.63
2017-10-21T09:19:28.011Z,6.90
2017-10-21T09:21:56.011Z,5.27
2017-10-21T09:24:23.939Z,5.40
2017-10-21T09:26:52.870Z,7.67
2017-10-21T09:29:20.725Z,5.87
2017-10-21T09:31:48.869Z,5.20
2017-10-21T09:34:17.536Z,6.00
2017-10-21T09:36:46.238Z,6.20
2017-10-21T09:39:14.864Z,5.77
2017-10-21T09:41:42.732Z,5.67
2017-10-21T09:44:10.577Z,5.10
2017-10-21T09:46:38.462Z,6.47
2017-10-21T09:49:06.309Z,6.20
2017-10-21T09:51:34.245Z,6.50
2017-10-21T09:54:02.894Z,7.73
2017-10-21T09:56:30.812Z,5.80
2017-10-21T09:58:58.796Z,6.53
2017-10-21T10:01:27.112Z,5.63
2017-10-21T10:03:54.964Z,5.47
2017-10-21T10:06:22.964Z,5.33
2017-10-21T10:08:50.910Z,6.03
2017-10-21T10:11:18.842Z,5.20
2017-10-21T10:13:46.759Z,4.90
2017-10-21T10:16:14.805Z,5.03
2017-10-21T10:18:42.672Z,4.77
2017-10-21T10:21:10.489Z,5.27
2017-10-21T10:23:39.081Z,4.67
2017-10-21T10:26:07.760Z,3.23
2017-10-21T10:28:35.673Z,3.53
2017-10-21T10:31:03.503Z,4.03
2017-10-21T10:33:31.435Z,3.57
2017-10-21T10:36:06.292Z,3.77
2017-10-21T10:38:35.022Z,3.27
2017-10-21T10:41:02.874Z,3.00
2017-10-21T10:43:30.858Z,3.10
2017-10-21T10:45:59.517Z,1.90
2017-10-21T10:48:27.368Z,1.80
2017-10-21T10:50:55.390Z,3.17
2017-10-21T10:53:24.215Z,4.70
2017-10-21T10:55:52.791Z,3.77
2017-10-21T10:58:21.601Z,3.80
2017-10-21T11:00:49.732Z,4.67
2017-10-21T11:03:19.686Z,5.67
2017-10-21T11:05:48.845Z,5.32
2017-10-21T11:08:16.764Z,6.03
2017-10-21T11:10:44.735Z,5.10
2017-10-21T11:13:12.584Z,6.47
2017-10-21T11:15:41.119Z,4.43
2017-10-21T11:18:08.896Z,5.90
2017-10-21T11:20:36.709Z,5.10
2017-10-21T11:23:04.496Z,5.47
2017-10-21T11:25:32.333Z,5.40
2017-10-21T11:28:00.254Z,4.83
2017-10-21T11:30:28.228Z,5.70
2017-10-21T11:32:56.072Z,5.57
2017-10-21T11:35:24.084Z,13.40
2017-10-21T11:37:52.840Z,26.33
2017-10-21T11:40:33.815Z,14.27
2017-10-21T11:43:04.536Z,8.60
2017-10-21T11:45:35.087Z,8.90
2017-10-21T11:48:02.957Z,8.40
2017-10-21T11:50:30.868Z,5.63
2017-10-21T11:53:03.913Z,6.03
2017-10-21T11:55:34.889Z,6.17
2017-10-21T11:58:04.137Z,6.67
2017-10-21T12:00:32.070Z,7.13
2017-10-21T12:02:59.888Z,5.30
2017-10-21T12:05:27.717Z,5.50
2017-10-21T12:07:56.142Z,6.20
2017-10-21T12:13:33.237Z,5.63
2017-10-21T12:16:04.395Z,5.87
2017-10-21T12:18:32.643Z,5.80
2017-10-21T12:21:00.466Z,5.67
2017-10-21T12:23:28.289Z,6.40
2017-10-21T12:26:04.292Z,5.47
2017-10-21T12:28:32.096Z,5.83
2017-10-21T12:30:59.908Z,4.47
2017-10-21T12:33:27.768Z,5.17
2017-10-21T12:35:56.312Z,5.70
2017-10-21T12:38:24.132Z,4.90
2017-10-21T12:40:52.482Z,4.12
2017-10-21T12:43:21.083Z,4.33
2017-10-21T12:45:48.909Z,4.10
2017-10-21T12:48:16.713Z,4.43
2017-10-21T12:50:45.256Z,4.33
2017-10-21T12:53:13.104Z,3.30
2017-10-21T12:55:40.883Z,3.87
2017-10-21T12:58:08.748Z,3.00
2017-10-21T13:00:36.709Z,2.90
2017-10-21T13:03:04.517Z,3.93
2017-10-21T13:05:33.144Z,3.47
2017-10-21T13:08:01.025Z,4.37
2017-10-21T13:10:28.834Z,4.30
2017-10-21T13:12:57.556Z,4.30
2017-10-21T13:15:25.382Z,4.13
2017-10-21T13:17:54.000Z,3.77
2017-10-21T13:20:22.260Z,4.47
2017-10-21T13:22:51.240Z,3.70
2017-10-21T13:25:24.751Z,4.10
2017-10-21T13:27:54.340Z,4.23
2017-10-21T13:30:22.188Z,3.53
2017-10-21T13:32:49.983Z,3.40
2017-10-21T13:35:17.775Z,4.17
2017-10-21T13:37:45.653Z,4.17
2017-10-21T13:40:13.506Z,3.63
2017-10-21T13:42:42.044Z,3.17
2017-10-21T13:45:10.599Z,3.80
2017-10-21T13:47:39.253Z,4.00
2017-10-21T13:50:08.188Z,4.53
2017-10-21T13:52:36.793Z,3.70
2017-10-21T13:55:05.405Z,3.43
2017-10-21T13:57:33.233Z,3.90
2017-10-21T14:00:01.040Z,3.73
2017-10-21T14:02:28.845Z,3.20
2017-10-21T14:04:56.779Z,2.60
2017-10-21T14:07:24.596Z,2.63
2017-10-21T14:09:53.108Z,3.17
2017-10-21T14:12:21.072Z,2.70
2017-10-21T14:14:49.262Z,3.40
2017-10-21T14:17:17.104Z,3.60
2017-10-21T14:19:44.942Z,3.90
2017-10-21T14:22:12.873Z,4.13
2017-10-21T14:24:41.158Z,3.97
2017-10-21T14:27:10.354Z,3.07
2017-10-21T14:29:38.288Z,3.83
2017-10-21T14:32:06.176Z,3.97
2017-10-21T14:34:34.051Z,4.57
2017-10-21T14:37:02.053Z,3.50
2017-10-21T14:39:29.936Z,4.20
2017-10-21T14:41:57.739Z,3.53
2017-10-21T14:44:25.539Z,2.87
2017-10-21T14:46:53.407Z,3.10
2017-10-21T14:49:21.425Z,2.43
2017-10-21T14:51:49.643Z,2.70
2017-10-21T14:54:17.493Z,2.42
2017-10-21T14:56:45.460Z,1.80
2017-10-21T14:59:13.293Z,2.17
2017-10-21T15:01:41.187Z,2.70
2017-10-21T15:04:09.074Z,2.30
2017-10-21T15:06:37.008Z,1.87
2017-10-21T15:09:05.656Z,1.83
2017-10-21T15:11:34.342Z,2.20
2017-10-21T15:14:02.916Z,2.23
2017-10-21T15:16:30.807Z,1.70
2017-10-21T15:18:59.430Z,2.00
2017-10-21T15:21:27.251Z,1.73
2017-10-21T15:23:55.884Z,2.17
2017-10-21T15:26:24.502Z,1.80
2017-10-21T15:28:53.080Z,1.80
2017-10-21T15:31:22.093Z,2.27
2017-10-21T15:33:50.854Z,1.40
2017-10-21T15:36:19.048Z,1.77
2017-10-21T15:38:47.059Z,2.37
2017-10-21T15:41:14.939Z,2.00
2017-10-21T15:43:42.748Z,2.00
2017-10-21T15:46:11.303Z,2.37
2017-10-21T15:48:39.402Z,1.43
2017-10-21T15:51:09.509Z,1.90
2017-10-21T15:53:37.417Z,1.70
2017-10-21T15:56:05.224Z,2.03
2017-10-21T15:58:33.025Z,1.95
2017-10-21T16:01:01.704Z,1.63
2017-10-21T16:03:30.308Z,1.50
2017-10-21T16:05:58.187Z,1.55
2017-10-21T16:08:26.037Z,2.20
2017-10-21T16:10:54.732Z,1.80
2017-10-21T16:13:22.579Z,1.80
2017-10-21T16:15:51.166Z,1.80
2017-10-21T16:18:19.728Z,2.67
2017-10-21T16:20:47.558Z,1.70
2017-10-21T16:23:15.472Z,1.40
2017-10-21T16:25:44.037Z,1.70
2017-10-21T16:28:12.514Z,1.93
2017-10-21T16:30:40.300Z,2.37
2017-10-21T16:33:08.874Z,2.30
2017-10-21T16:35:36.703Z,1.63
2017-10-21T16:38:04.569Z,2.33
2017-10-21T16:40:32.440Z,1.60
2017-10-21T16:43:00.464Z,2.00
2017-10-21T16:45:29.040Z,1.60
2017-10-21T16:47:57.612Z,2.23
2017-10-21T16:50:25.421Z,2.50
2017-10-21T16:52:53.195Z,2.03
2017-10-21T16:55:21.042Z,2.07
2017-10-21T16:57:48.829Z,2.53
2017-10-21T17:00:16.607Z,2.20
2017-10-21T17:02:44.389Z,2.10
2017-10-21T17:05:12.348Z,2.80
2017-10-21T17:07:40.580Z,2.33
2017-10-21T17:10:08.582Z,2.13
2017-10-21T17:12:36.571Z,2.77
2017-10-21T17:15:04.815Z,2.30
2017-10-21T17:17:32.705Z,2.90
2017-10-21T17:20:01.331Z,3.20
2017-10-21T17:22:29.882Z,2.80
2017-10-21T17:24:57.685Z,2.60
2017-10-21T17:27:25.576Z,2.10
2017-10-21T17:29:53.380Z,2.43
2017-10-21T17:32:21.336Z,2.47
2017-10-21T17:34:49.364Z,2.73
2017-10-21T17:37:17.362Z,2.87
2017-10-21T17:39:45.293Z,2.63
2017-10-21T17:42:13.236Z,2.23
2017-10-21T17:44:41.909Z,2.47
2017-10-21T17:47:09.815Z,3.87
2017-10-21T17:49:37.698Z,4.57
2017-10-21T17:52:05.576Z,3.60
2017-10-21T17:54:33.897Z,4.23
2017-10-21T17:57:02.697Z,3.37
2017-10-21T17:59:31.463Z,3.90
2017-10-21T18:01:59.309Z,3.40
2017-10-21T18:04:27.994Z,4.97
2017-10-21T18:06:56.013Z,5.30
2017-10-21T18:09:24.613Z,5.20
2017-10-21T18:11:52.501Z,6.27
2017-10-21T18:14:20.393Z,5.57
2017-10-21T18:16:48.385Z,5.80
2017-10-21T18:19:17.065Z,6.27
2017-10-21T18:21:44.989Z,5.10
2017-10-21T18:24:13.080Z,4.73
2017-10-21T18:26:41.025Z,4.33
2017-10-21T18:29:08.808Z,4.60
2017-10-21T18:31:36.645Z,4.70
2017-10-21T18:34:04.775Z,4.70
2017-10-21T18:36:33.460Z,4.07
2017-10-21T18:39:02.098Z,4.50
2017-10-21T18:41:29.884Z,4.07
2017-10-21T18:43:57.933Z,5.30
2017-10-21T18:46:25.952Z,4.50
2017-10-21T18:48:54.502Z,4.10
2017-10-21T18:51:23.253Z,4.30
2017-10-21T18:53:51.129Z,6.33
2017-10-21T18:56:18.972Z,10.10
2017-10-21T18:58:46.796Z,8.80
2017-10-21T19:01:15.311Z,7.13
2017-10-21T19:03:44.066Z,5.97
2017-10-21T19:06:11.914Z,5.90
2017-10-21T19:08:40.173Z,5.80
2017-10-21T19:11:08.091Z,6.03
2017-10-21T19:16:10.781Z,5.73
2017-10-21T19:18:38.680Z,6.63
2017-10-21T19:21:06.483Z,5.60
2017-10-21T19:23:34.290Z,5.30
2017-10-21T19:26:02.847Z,5.10
2017-10-21T19:28:30.652Z,4.80
2017-10-21T19:30:59.239Z,5.00
2017-10-21T19:33:27.962Z,5.23
2017-10-21T19:35:55.773Z,4.57
2017-10-21T19:38:28.589Z,4.27
2017-10-21T19:40:56.628Z,5.60
2017-10-21T19:43:25.235Z,5.20
2017-10-21T19:45:53.140Z,6.03
2017-10-21T19:48:20.930Z,5.27
2017-10-21T19:50:48.732Z,5.30
2017-10-21T19:53:16.591Z,5.00
2017-10-21T19:55:44.403Z,4.83
2017-10-21T19:58:12.242Z,4.60
2017-10-21T20:00:40.123Z,4.20
2017-10-21T20:03:07.973Z,3.47
2017-10-21T20:05:36.000Z,4.93
2017-10-21T20:08:04.733Z,5.10
2017-10-21T20:10:32.597Z,3.80
2017-10-21T20:13:00.401Z,3.60
2017-10-21T20:15:28.262Z,3.43
2017-10-21T20:17:56.074Z,3.90
2017-10-21T20:20:23.889Z,3.70
2017-10-21T20:22:51.859Z,2.87
2017-10-21T20:25:19.702Z,3.73
2017-10-21T20:27:48.757Z,3.40
2017-10-21T20:30:16.649Z,3.47
2017-10-21T20:32:44.526Z,3.90
2017-10-21T20:35:12.316Z,3.40
2017-10-21T20:37:40.204Z,3.97
2017-10-21T20:40:08.036Z,3.30
2017-10-21T20:42:35.964Z,4.67
2017-10-21T20:45:03.835Z,3.80
2017-10-21T20:47:31.761Z,3.53
2017-10-21T20:49:59.619Z,3.70
2017-10-21T20:52:27.579Z,3.70
2017-10-21T20:54:55.373Z,4.50
2017-10-21T20:57:23.272Z,4.30
2017-10-21T20:59:51.126Z,4.30
2017-10-21T21:02:19.686Z,3.83
2017-10-21T21:04:47.540Z,4.33
2017-10-21T21:07:15.344Z,5.73
2017-10-21T21:09:43.986Z,6.67
2017-10-21T21:12:11.856Z,6.17
2017-10-21T21:14:39.668Z,5.27
2017-10-21T21:17:07.556Z,7.80
2017-10-21T21:19:35.651Z,5.90
2017-10-21T21:22:03.575Z,5.97
2017-10-21T21:24:31.385Z,6.03
2017-10-21T21:26:59.213Z,5.27
2017-10-21T21:29:27.006Z,6.13
2017-10-21T21:31:54.843Z,5.70
2017-10-21T21:34:22.638Z,6.00
2017-10-21T21:36:50.424Z,6.93
2017-10-21T21:39:18.362Z,6.93
2017-10-21T21:41:46.136Z,6.80
2017-10-21T21:44:14.017Z,7.23
2017-10-21T21:46:41.823Z,7.67
2017-10-21T21:49:09.645Z,8.17
2017-10-21T21:51:37.456Z,7.87
2017-10-21T21:54:05.250Z,8.07
2017-10-21T21:56:33.087Z,8.60
2017-10-21T21:59:00.882Z,8.57
2017-10-21T22:01:28.689Z,8.30
2017-10-21T22:03:57.880Z,9.13
2017-10-21T22:06:25.672Z,9.13
2017-10-21T22:08:53.652Z,9.17
2017-10-21T22:11:21.525Z,9.80
2017-10-21T22:13:49.322Z,8.90
2017-10-21T22:16:17.138Z,10.07
2017-10-21T22:18:45.002Z,8.17
2017-10-21T22:21:12.973Z,7.67
2017-10-21T22:23:40.847Z,7.90
2017-10-21T22:26:08.798Z,6.87
2017-10-21T22:28:37.340Z,6.80
2017-10-21T22:31:05.144Z,6.60
2017-10-21T22:33:33.781Z,6.20
2017-10-21T22:36:01.579Z,5.77
2017-10-21T22:38:29.614Z,5.13
2017-10-21T22:40:57.469Z,5.43
2017-10-21T22:43:26.285Z,5.70
2017-10-21T22:45:54.097Z,6.00
2017-10-21T22:48:22.134Z,5.50
2017-10-21T22:50:49.911Z,6.13
2017-10-21T22:53:18.556Z,7.90
2017-10-21T22:55:46.367Z,7.50
2017-10-21T22:58:14.933Z,8.70
2017-10-21T23:00:42.809Z,6.50
2017-10-21T23:03:11.404Z,7.37
2017-10-21T23:05:39.988Z,7.60
2017-10-21T23:08:08.716Z,7.60
2017-10-21T23:10:36.591Z,8.77
2017-10-21T23:13:04.549Z,10.43
2017-10-21T23:15:32.438Z,9.10
2017-10-21T23:18:00.476Z,8.93
2017-10-21T23:20:28.351Z,11.30
2017-10-21T23:22:56.496Z,9.60
2017-10-21T23:25:24.320Z,10.20
2017-10-21T23:27:52.157Z,10.57
2017-10-21T23:30:21.039Z,12.93
2017-10-21T23:32:48.830Z,11.23
2017-10-21T23:35:16.609Z,11.10
2017-10-21T23:37:44.635Z,12.27
2017-10-21T23:40:12.461Z,12.33
2017-10-21T23:42:41.133Z,12.50
2017-10-21T23:45:08.923Z,12.30
2017-10-21T23:47:37.640Z,13.50
2017-10-21T23:50:05.449Z,12.07
2017-10-21T23:52:33.243Z,12.60
2017-10-21T23:55:01.119Z,9.70
2017-10-21T23:57:28.951Z,7.73
2017-10-21T23:59:56.785Z,8.30
